sensor_id;sensor_type;location;lat;lon;timestamp;P1;durP1;ratioP1;P2;durP2;ratioP2
63807;SDS011;49961;43.970;22.868;2022-12-07T00:00:44;26.40;;;22.60;;
63807;SDS011;49961;43.970;22.868;2022-12-07T00:01:45;26.73;;;21.90;;
63807;SDS011;49961;43.970;22.868;2022-12-07T00:02:46;28.83;;;22.77;;
63807;SDS011;49961;43.970;22.868;2022-12-07T00:03:47;29.67;;;21.93;;
63807;SDS011;49961;43.970;22.868;2022-12-07T00:04:49;28.85;;;22.73;;
63807;SDS011;49961;43.970;22.868;2022-12-07T00:05:49;31.60;;;23.80;;
63807;SDS011;49961;43.970;22.868;2022-12-07T00:06:51;28.43;;;22.63;;
63807;SDS011;49961;43.970;22.868;2022-12-07T00:07:52;27.97;;;22.70;;
63807;SDS011;49961;43.970;22.868;2022-12-07T00:08:53;24.93;;;21.53;;
63807;SDS011;49961;43.970;22.868;2022-12-07T00:09:53;28.93;;;23.10;;
63807;SDS011;49961;43.970;22.868;2022-12-07T00:10:54;26.97;;;22.93;;
63807;SDS011;49961;43.970;22.868;2022-12-07T00:11:54;30.43;;;23.47;;
63807;SDS011;49961;43.970;22.868;2022-12-07T00:12:55;30.47;;;23.97;;
63807;SDS011;49961;43.970;22.868;2022-12-07T00:13:57;31.07;;;23.53;;
63807;SDS011;49961;43.970;22.868;2022-12-07T00:14:59;30.65;;;24.40;;
63807;SDS011;49961;43.970;22.868;2022-12-07T00:16:00;31.53;;;25.73;;
63807;SDS011;49961;43.970;22.868;2022-12-07T00:17:02;29.48;;;24.58;;
63807;SDS011;49961;43.970;22.868;2022-12-07T00:18:02;30.80;;;24.80;;
63807;SDS011;49961;43.970;22.868;2022-12-07T00:19:03;34.80;;;25.47;;
63807;SDS011;49961;43.970;22.868;2022-12-07T00:20:04;31.13;;;24.40;;
63807;SDS011;49961;43.970;22.868;2022-12-07T00:21:07;31.23;;;24.70;;
63807;SDS011;49961;43.970;22.868;2022-12-07T00:22:13;31.52;;;25.30;;
63807;SDS011;49961;43.970;22.868;2022-12-07T00:23:14;31.30;;;25.10;;
63807;SDS011;49961;43.970;22.868;2022-12-07T00:24:14;33.17;;;25.67;;
63807;SDS011;49961;43.970;22.868;2022-12-07T00:25:14;33.07;;;26.27;;
63807;SDS011;49961;43.970;22.868;2022-12-07T00:26:16;29.93;;;24.57;;
63807;SDS011;49961;43.970;22.868;2022-12-07T00:27:21;32.50;;;25.55;;
63807;SDS011;49961;43.970;22.868;2022-12-07T00:28:22;29.50;;;24.27;;
63807;SDS011;49961;43.970;22.868;2022-12-07T00:29:22;30.30;;;24.37;;
63807;SDS011;49961;43.970;22.868;2022-12-07T00:30:23;30.87;;;24.47;;
63807;SDS011;49961;43.970;22.868;2022-12-07T00:31:25;32.60;;;26.60;;
63807;SDS011;49961;43.970;22.868;2022-12-07T00:32:26;31.83;;;25.95;;
63807;SDS011;49961;43.970;22.868;2022-12-07T00:33:27;32.47;;;26.03;;
63807;SDS011;49961;43.970;22.868;2022-12-07T00:34:28;30.50;;;24.95;;
63807;SDS011;49961;43.970;22.868;2022-12-07T00:35:29;31.40;;;26.00;;
63807;SDS011;49961;43.970;22.868;2022-12-07T00:36:29;32.80;;;25.93;;
63807;SDS011;49961;43.970;22.868;2022-12-07T00:37:29;34.03;;;26.77;;
63807;SDS011;49961;43.970;22.868;2022-12-07T00:38:31;31.43;;;25.47;;
63807;SDS011;49961;43.970;22.868;2022-12-07T00:39:32;33.30;;;26.33;;
63807;SDS011;49961;43.970;22.868;2022-12-07T00:40:32;31.67;;;25.90;;
63807;SDS011;49961;43.970;22.868;2022-12-07T00:41:33;31.43;;;25.17;;
63807;SDS011;49961;43.970;22.868;2022-12-07T00:42:33;32.83;;;26.03;;
63807;SDS011;49961;43.970;22.868;2022-12-07T00:43:33;31.43;;;25.17;;
63807;SDS011;49961;43.970;22.868;2022-12-07T00:44:34;31.00;;;26.20;;
63807;SDS011;49961;43.970;22.868;2022-12-07T00:45:34;31.27;;;26.23;;
63807;SDS011;49961;43.970;22.868;2022-12-07T00:46:35;31.00;;;25.60;;
63807;SDS011;49961;43.970;22.868;2022-12-07T00:47:35;30.80;;;25.90;;
63807;SDS011;49961;43.970;22.868;2022-12-07T00:48:36;31.43;;;25.50;;
63807;SDS011;49961;43.970;22.868;2022-12-07T00:49:36;30.63;;;25.17;;
63807;SDS011;49961;43.970;22.868;2022-12-07T00:50:37;28.20;;;24.43;;
63807;SDS011;49961;43.970;22.868;2022-12-07T00:51:37;33.10;;;25.90;;
63807;SDS011;49961;43.970;22.868;2022-12-07T00:52:38;33.83;;;25.33;;
63807;SDS011;49961;43.970;22.868;2022-12-07T00:53:38;30.80;;;24.93;;
63807;SDS011;49961;43.970;22.868;2022-12-07T00:54:39;30.38;;;25.48;;
63807;SDS011;49961;43.970;22.868;2022-12-07T00:55:40;31.23;;;25.53;;
63807;SDS011;49961;43.970;22.868;2022-12-07T00:56:42;31.63;;;25.02;;
63807;SDS011;49961;43.970;22.868;2022-12-07T00:57:42;28.90;;;24.37;;
63807;SDS011;49961;43.970;22.868;2022-12-07T00:58:42;29.87;;;24.47;;
63807;SDS011;49961;43.970;22.868;2022-12-07T00:59:43;31.27;;;24.42;;
63807;SDS011;49961;43.970;22.868;2022-12-07T01:00:44;29.33;;;24.13;;
63807;SDS011;49961;43.970;22.868;2022-12-07T01:01:45;28.97;;;24.53;;
63807;SDS011;49961;43.970;22.868;2022-12-07T01:02:45;31.73;;;25.00;;
63807;SDS011;49961;43.970;22.868;2022-12-07T01:03:46;29.60;;;24.33;;
63807;SDS011;49961;43.970;22.868;2022-12-07T01:04:46;31.67;;;25.23;;
63807;SDS011;49961;43.970;22.868;2022-12-07T01:05:50;30.53;;;25.30;;
63807;SDS011;49961;43.970;22.868;2022-12-07T01:06:52;30.27;;;24.25;;
63807;SDS011;49961;43.970;22.868;2022-12-07T01:07:52;30.60;;;24.23;;
63807;SDS011;49961;43.970;22.868;2022-12-07T01:08:53;27.97;;;23.67;;
63807;SDS011;49961;43.970;22.868;2022-12-07T01:09:53;29.67;;;24.13;;
63807;SDS011;49961;43.970;22.868;2022-12-07T01:11:01;29.07;;;24.33;;
63807;SDS011;49961;43.970;22.868;2022-12-07T01:12:06;29.30;;;24.27;;
63807;SDS011;49961;43.970;22.868;2022-12-07T01:13:06;26.27;;;22.43;;
63807;SDS011;49961;43.970;22.868;2022-12-07T01:14:08;28.63;;;23.53;;
63807;SDS011;49961;43.970;22.868;2022-12-07T01:15:08;28.50;;;22.98;;
63807;SDS011;49961;43.970;22.868;2022-12-07T01:16:10;27.60;;;22.90;;
63807;SDS011;49961;43.970;22.868;2022-12-07T01:17:13;29.63;;;23.75;;
63807;SDS011;49961;43.970;22.868;2022-12-07T01:18:14;28.27;;;23.33;;
63807;SDS011;49961;43.970;22.868;2022-12-07T01:19:14;31.60;;;25.07;;
63807;SDS011;49961;43.970;22.868;2022-12-07T01:20:14;32.63;;;24.83;;
63807;SDS011;49961;43.970;22.868;2022-12-07T01:21:20;32.00;;;24.47;;
63807;SDS011;49961;43.970;22.868;2022-12-07T01:22:25;28.33;;;23.45;;
63807;SDS011;49961;43.970;22.868;2022-12-07T01:23:26;27.55;;;23.48;;
63807;SDS011;49961;43.970;22.868;2022-12-07T01:24:26;29.30;;;24.30;;
63807;SDS011;49961;43.970;22.868;2022-12-07T01:25:27;29.40;;;23.77;;
63807;SDS011;49961;43.970;22.868;2022-12-07T01:26:27;30.20;;;25.27;;
63807;SDS011;49961;43.970;22.868;2022-12-07T01:27:28;34.07;;;24.97;;
63807;SDS011;49961;43.970;22.868;2022-12-07T01:28:28;31.10;;;23.30;;
63807;SDS011;49961;43.970;22.868;2022-12-07T01:29:29;27.73;;;22.90;;
63807;SDS011;49961;43.970;22.868;2022-12-07T01:30:29;30.73;;;23.63;;
63807;SDS011;49961;43.970;22.868;2022-12-07T01:31:30;29.57;;;23.77;;
63807;SDS011;49961;43.970;22.868;2022-12-07T01:32:31;30.40;;;24.07;;
63807;SDS011;49961;43.970;22.868;2022-12-07T01:33:32;28.93;;;24.73;;
63807;SDS011;49961;43.970;22.868;2022-12-07T01:34:34;28.15;;;23.55;;
63807;SDS011;49961;43.970;22.868;2022-12-07T01:35:35;32.17;;;24.57;;
63807;SDS011;49961;43.970;22.868;2022-12-07T01:36:36;31.63;;;24.20;;
63807;SDS011;49961;43.970;22.868;2022-12-07T01:37:37;33.50;;;25.60;;
63807;SDS011;49961;43.970;22.868;2022-12-07T01:38:38;32.60;;;25.67;;
63807;SDS011;49961;43.970;22.868;2022-12-07T01:39:39;31.27;;;25.83;;
63807;SDS011;49961;43.970;22.868;2022-12-07T01:40:41;29.95;;;24.75;;
63807;SDS011;49961;43.970;22.868;2022-12-07T01:41:41;29.03;;;23.03;;
63807;SDS011;49961;43.970;22.868;2022-12-07T01:42:43;28.25;;;22.58;;
63807;SDS011;49961;43.970;22.868;2022-12-07T01:46:19;32.20;;;23.63;;
63807;SDS011;49961;43.970;22.868;2022-12-07T01:47:19;28.83;;;23.23;;
63807;SDS011;49961;43.970;22.868;2022-12-07T01:48:21;28.47;;;22.33;;
63807;SDS011;49961;43.970;22.868;2022-12-07T01:49:36;30.02;;;23.73;;
63807;SDS011;49961;43.970;22.868;2022-12-07T01:50:39;29.13;;;22.83;;
63807;SDS011;49961;43.970;22.868;2022-12-07T01:51:40;29.83;;;23.58;;
63807;SDS011;49961;43.970;22.868;2022-12-07T01:52:43;28.52;;;25.02;;
63807;SDS011;49961;43.970;22.868;2022-12-07T01:53:48;29.42;;;24.08;;
63807;SDS011;49961;43.970;22.868;2022-12-07T01:54:49;30.70;;;25.30;;
63807;SDS011;49961;43.970;22.868;2022-12-07T01:55:54;31.00;;;24.40;;
63807;SDS011;49961;43.970;22.868;2022-12-07T01:56:56;30.70;;;25.38;;
63807;SDS011;49961;43.970;22.868;2022-12-07T01:57:58;32.33;;;25.67;;
63807;SDS011;49961;43.970;22.868;2022-12-07T01:58:58;33.90;;;25.77;;
63807;SDS011;49961;43.970;22.868;2022-12-07T02:00:00;31.13;;;26.27;;
63807;SDS011;49961;43.970;22.868;2022-12-07T02:01:01;32.70;;;26.02;;
63807;SDS011;49961;43.970;22.868;2022-12-07T02:02:02;31.80;;;25.33;;
63807;SDS011;49961;43.970;22.868;2022-12-07T02:03:08;30.65;;;25.15;;
63807;SDS011;49961;43.970;22.868;2022-12-07T02:04:15;33.00;;;25.15;;
63807;SDS011;49961;43.970;22.868;2022-12-07T02:05:16;30.53;;;24.67;;
63807;SDS011;49961;43.970;22.868;2022-12-07T02:06:19;30.35;;;25.02;;
63807;SDS011;49961;43.970;22.868;2022-12-07T02:07:24;29.08;;;24.08;;
63807;SDS011;49961;43.970;22.868;2022-12-07T02:08:26;29.40;;;23.38;;
63807;SDS011;49961;43.970;22.868;2022-12-07T02:09:27;29.93;;;22.93;;
63807;SDS011;49961;43.970;22.868;2022-12-07T02:10:29;30.63;;;23.20;;
63807;SDS011;49961;43.970;22.868;2022-12-07T02:11:30;29.80;;;25.20;;
63807;SDS011;49961;43.970;22.868;2022-12-07T02:12:31;32.73;;;25.20;;
63807;SDS011;49961;43.970;22.868;2022-12-07T02:13:33;29.57;;;23.90;;
63807;SDS011;49961;43.970;22.868;2022-12-07T02:14:36;30.80;;;24.88;;
63807;SDS011;49961;43.970;22.868;2022-12-07T02:15:40;30.83;;;24.50;;
63807;SDS011;49961;43.970;22.868;2022-12-07T02:16:58;31.58;;;25.55;;
63807;SDS011;49961;43.970;22.868;2022-12-07T02:22:27;34.83;;;25.42;;
63807;SDS011;49961;43.970;22.868;2022-12-07T02:24:02;30.52;;;23.48;;
63807;SDS011;49961;43.970;22.868;2022-12-07T02:26:41;33.83;;;24.75;;
63807;SDS011;49961;43.970;22.868;2022-12-07T02:30:17;31.77;;;23.73;;
63807;SDS011;49961;43.970;22.868;2022-12-07T02:31:20;32.88;;;24.52;;
63807;SDS011;49961;43.970;22.868;2022-12-07T02:32:28;35.20;;;25.23;;
63807;SDS011;49961;43.970;22.868;2022-12-07T02:33:46;31.67;;;23.80;;
63807;SDS011;49961;43.970;22.868;2022-12-07T02:35:07;33.85;;;25.48;;
63807;SDS011;49961;43.970;22.868;2022-12-07T02:37:20;32.38;;;23.75;;
63807;SDS011;49961;43.970;22.868;2022-12-07T02:39:59;32.65;;;24.27;;
63807;SDS011;49961;43.970;22.868;2022-12-07T02:41:07;33.87;;;23.77;;
63807;SDS011;49961;43.970;22.868;2022-12-07T02:42:14;35.60;;;24.73;;
63807;SDS011;49961;43.970;22.868;2022-12-07T02:43:20;33.85;;;24.17;;
63807;SDS011;49961;43.970;22.868;2022-12-07T02:44:26;33.78;;;23.70;;
63807;SDS011;49961;43.970;22.868;2022-12-07T02:45:28;36.15;;;24.92;;
63807;SDS011;49961;43.970;22.868;2022-12-07T02:48:03;32.25;;;24.02;;
63807;SDS011;49961;43.970;22.868;2022-12-07T02:49:07;31.80;;;23.55;;
63807;SDS011;49961;43.970;22.868;2022-12-07T02:50:08;30.98;;;23.45;;
63807;SDS011;49961;43.970;22.868;2022-12-07T02:51:09;33.42;;;24.50;;
63807;SDS011;49961;43.970;22.868;2022-12-07T02:52:10;35.03;;;24.23;;
63807;SDS011;49961;43.970;22.868;2022-12-07T02:53:29;32.60;;;23.60;;
63807;SDS011;49961;43.970;22.868;2022-12-07T02:54:38;34.75;;;24.17;;
63807;SDS011;49961;43.970;22.868;2022-12-07T02:55:38;35.00;;;24.83;;
63807;SDS011;49961;43.970;22.868;2022-12-07T02:58:17;31.23;;;23.40;;
63807;SDS011;49961;43.970;22.868;2022-12-07T03:00:41;29.77;;;23.25;;
63807;SDS011;49961;43.970;22.868;2022-12-07T03:03:18;36.72;;;23.63;;
63807;SDS011;49961;43.970;22.868;2022-12-07T03:06:56;36.17;;;24.25;;
63807;SDS011;49961;43.970;22.868;2022-12-07T03:09:11;34.38;;;23.77;;
63807;SDS011;49961;43.970;22.868;2022-12-07T03:10:19;37.03;;;24.63;;
63807;SDS011;49961;43.970;22.868;2022-12-07T03:11:39;35.60;;;24.75;;
63807;SDS011;49961;43.970;22.868;2022-12-07T03:14:19;34.42;;;23.63;;
63807;SDS011;49961;43.970;22.868;2022-12-07T03:15:29;37.08;;;24.33;;
63807;SDS011;49961;43.970;22.868;2022-12-07T03:16:53;33.28;;;23.40;;
63807;SDS011;49961;43.970;22.868;2022-12-07T03:18:13;32.60;;;21.98;;
63807;SDS011;49961;43.970;22.868;2022-12-07T03:19:19;35.38;;;24.73;;
63807;SDS011;49961;43.970;22.868;2022-12-07T03:20:21;34.20;;;24.38;;
63807;SDS011;49961;43.970;22.868;2022-12-07T03:21:26;32.65;;;23.83;;
63807;SDS011;49961;43.970;22.868;2022-12-07T03:22:31;32.97;;;23.58;;
63807;SDS011;49961;43.970;22.868;2022-12-07T03:23:36;33.65;;;24.45;;
63807;SDS011;49961;43.970;22.868;2022-12-07T03:24:50;36.08;;;25.58;;
63807;SDS011;49961;43.970;22.868;2022-12-07T03:25:55;37.70;;;24.35;;
63807;SDS011;49961;43.970;22.868;2022-12-07T03:27:06;34.35;;;24.13;;
63807;SDS011;49961;43.970;22.868;2022-12-07T03:28:11;34.73;;;24.23;;
63807;SDS011;49961;43.970;22.868;2022-12-07T03:29:27;34.07;;;24.33;;
63807;SDS011;49961;43.970;22.868;2022-12-07T03:30:42;35.90;;;24.70;;
63807;SDS011;49961;43.970;22.868;2022-12-07T03:31:51;31.93;;;22.87;;
63807;SDS011;49961;43.970;22.868;2022-12-07T03:33:03;37.90;;;24.10;;
63807;SDS011;49961;43.970;22.868;2022-12-07T03:35:34;35.40;;;24.48;;
63807;SDS011;49961;43.970;22.868;2022-12-07T03:36:41;38.45;;;25.15;;
63807;SDS011;49961;43.970;22.868;2022-12-07T03:37:57;37.67;;;24.13;;
63807;SDS011;49961;43.970;22.868;2022-12-07T03:39:22;36.00;;;24.35;;
63807;SDS011;49961;43.970;22.868;2022-12-07T03:40:52;37.53;;;24.63;;
63807;SDS011;49961;43.970;22.868;2022-12-07T03:42:14;33.80;;;22.97;;
63807;SDS011;49961;43.970;22.868;2022-12-07T03:43:16;33.70;;;23.80;;
63807;SDS011;49961;43.970;22.868;2022-12-07T03:44:17;38.00;;;24.85;;
63807;SDS011;49961;43.970;22.868;2022-12-07T03:45:20;34.60;;;25.67;;
63807;SDS011;49961;43.970;22.868;2022-12-07T03:50:48;35.75;;;25.70;;
63807;SDS011;49961;43.970;22.868;2022-12-07T03:52:58;37.42;;;26.02;;
63807;SDS011;49961;43.970;22.868;2022-12-07T03:54:10;40.10;;;25.67;;
63807;SDS011;49961;43.970;22.868;2022-12-07T03:55:20;36.90;;;26.80;;
63807;SDS011;49961;43.970;22.868;2022-12-07T03:56:25;38.38;;;26.55;;
63807;SDS011;49961;43.970;22.868;2022-12-07T03:57:28;40.83;;;26.65;;
63807;SDS011;49961;43.970;22.868;2022-12-07T03:58:30;37.53;;;26.33;;
63807;SDS011;49961;43.970;22.868;2022-12-07T03:59:32;38.50;;;26.17;;
63807;SDS011;49961;43.970;22.868;2022-12-07T04:00:33;38.20;;;27.35;;
63807;SDS011;49961;43.970;22.868;2022-12-07T04:01:34;37.83;;;25.10;;
63807;SDS011;49961;43.970;22.868;2022-12-07T04:02:34;37.30;;;26.60;;
63807;SDS011;49961;43.970;22.868;2022-12-07T04:03:36;39.88;;;26.63;;
63807;SDS011;49961;43.970;22.868;2022-12-07T04:04:36;38.43;;;27.03;;
63807;SDS011;49961;43.970;22.868;2022-12-07T04:05:37;38.93;;;26.53;;
63807;SDS011;49961;43.970;22.868;2022-12-07T04:06:39;37.70;;;25.42;;
63807;SDS011;49961;43.970;22.868;2022-12-07T04:07:39;40.90;;;26.60;;
63807;SDS011;49961;43.970;22.868;2022-12-07T04:08:41;38.25;;;25.33;;
63807;SDS011;49961;43.970;22.868;2022-12-07T04:09:41;38.33;;;26.57;;
63807;SDS011;49961;43.970;22.868;2022-12-07T04:10:42;35.73;;;25.27;;
63807;SDS011;49961;43.970;22.868;2022-12-07T04:11:42;36.77;;;25.03;;
63807;SDS011;49961;43.970;22.868;2022-12-07T04:12:43;39.57;;;25.83;;
63807;SDS011;49961;43.970;22.868;2022-12-07T04:13:43;39.60;;;26.23;;
63807;SDS011;49961;43.970;22.868;2022-12-07T04:15:03;35.95;;;23.60;;
63807;SDS011;49961;43.970;22.868;2022-12-07T04:16:04;39.67;;;25.52;;
63807;SDS011;49961;43.970;22.868;2022-12-07T04:17:05;38.97;;;25.73;;
63807;SDS011;49961;43.970;22.868;2022-12-07T04:18:05;39.73;;;26.13;;
63807;SDS011;49961;43.970;22.868;2022-12-07T04:19:06;39.77;;;25.80;;
63807;SDS011;49961;43.970;22.868;2022-12-07T04:20:07;41.13;;;26.23;;
63807;SDS011;49961;43.970;22.868;2022-12-07T04:21:08;39.05;;;25.58;;
63807;SDS011;49961;43.970;22.868;2022-12-07T04:22:08;39.23;;;25.67;;
63807;SDS011;49961;43.970;22.868;2022-12-07T04:23:09;40.27;;;26.87;;
63807;SDS011;49961;43.970;22.868;2022-12-07T04:24:11;40.07;;;26.60;;
63807;SDS011;49961;43.970;22.868;2022-12-07T04:25:12;37.42;;;24.88;;
63807;SDS011;49961;43.970;22.868;2022-12-07T04:26:12;40.60;;;26.17;;
63807;SDS011;49961;43.970;22.868;2022-12-07T04:27:12;42.77;;;26.90;;
63807;SDS011;49961;43.970;22.868;2022-12-07T04:28:13;39.20;;;26.70;;
63807;SDS011;49961;43.970;22.868;2022-12-07T04:29:14;38.97;;;26.17;;
63807;SDS011;49961;43.970;22.868;2022-12-07T04:30:15;42.47;;;26.63;;
63807;SDS011;49961;43.970;22.868;2022-12-07T04:31:16;42.07;;;25.53;;
63807;SDS011;49961;43.970;22.868;2022-12-07T04:32:16;36.00;;;24.87;;
63807;SDS011;49961;43.970;22.868;2022-12-07T04:33:17;37.53;;;25.50;;
63807;SDS011;49961;43.970;22.868;2022-12-07T04:34:18;35.33;;;25.03;;
63807;SDS011;49961;43.970;22.868;2022-12-07T04:35:19;37.60;;;24.97;;
63807;SDS011;49961;43.970;22.868;2022-12-07T04:36:20;38.27;;;25.83;;
63807;SDS011;49961;43.970;22.868;2022-12-07T04:37:21;38.77;;;25.30;;
63807;SDS011;49961;43.970;22.868;2022-12-07T04:38:22;40.17;;;26.07;;
63807;SDS011;49961;43.970;22.868;2022-12-07T04:39:23;35.63;;;24.67;;
63807;SDS011;49961;43.970;22.868;2022-12-07T04:40:26;38.33;;;26.03;;
63807;SDS011;49961;43.970;22.868;2022-12-07T04:41:26;40.07;;;25.97;;
63807;SDS011;49961;43.970;22.868;2022-12-07T04:42:27;34.90;;;24.60;;
63807;SDS011;49961;43.970;22.868;2022-12-07T04:43:28;39.40;;;25.47;;
63807;SDS011;49961;43.970;22.868;2022-12-07T04:44:28;38.93;;;24.83;;
63807;SDS011;49961;43.970;22.868;2022-12-07T04:45:30;35.47;;;24.03;;
63807;SDS011;49961;43.970;22.868;2022-12-07T04:46:30;40.07;;;24.30;;
63807;SDS011;49961;43.970;22.868;2022-12-07T04:47:31;39.53;;;24.57;;
63807;SDS011;49961;43.970;22.868;2022-12-07T04:48:32;37.83;;;24.23;;
63807;SDS011;49961;43.970;22.868;2022-12-07T04:49:33;41.00;;;25.60;;
63807;SDS011;49961;43.970;22.868;2022-12-07T04:50:34;41.80;;;26.00;;
63807;SDS011;49961;43.970;22.868;2022-12-07T04:51:35;44.90;;;25.97;;
63807;SDS011;49961;43.970;22.868;2022-12-07T04:52:36;42.70;;;26.23;;
63807;SDS011;49961;43.970;22.868;2022-12-07T04:53:36;42.07;;;25.90;;
63807;SDS011;49961;43.970;22.868;2022-12-07T04:54:36;36.90;;;24.63;;
63807;SDS011;49961;43.970;22.868;2022-12-07T04:55:37;38.17;;;24.30;;
63807;SDS011;49961;43.970;22.868;2022-12-07T04:56:37;39.43;;;24.53;;
63807;SDS011;49961;43.970;22.868;2022-12-07T04:57:38;37.50;;;24.37;;
63807;SDS011;49961;43.970;22.868;2022-12-07T04:58:38;36.70;;;24.60;;
63807;SDS011;49961;43.970;22.868;2022-12-07T04:59:39;35.30;;;24.43;;
63807;SDS011;49961;43.970;22.868;2022-12-07T05:00:39;37.10;;;24.53;;
63807;SDS011;49961;43.970;22.868;2022-12-07T05:01:40;35.03;;;24.37;;
63807;SDS011;49961;43.970;22.868;2022-12-07T05:02:41;38.23;;;24.27;;
63807;SDS011;49961;43.970;22.868;2022-12-07T05:03:41;35.93;;;24.10;;
63807;SDS011;49961;43.970;22.868;2022-12-07T05:04:41;36.97;;;23.43;;
63807;SDS011;49961;43.970;22.868;2022-12-07T05:05:42;37.20;;;24.37;;
63807;SDS011;49961;43.970;22.868;2022-12-07T05:06:42;34.33;;;24.17;;
63807;SDS011;49961;43.970;22.868;2022-12-07T05:07:43;35.20;;;23.67;;
63807;SDS011;49961;43.970;22.868;2022-12-07T05:08:43;36.97;;;24.50;;
63807;SDS011;49961;43.970;22.868;2022-12-07T05:09:44;34.93;;;24.03;;
63807;SDS011;49961;43.970;22.868;2022-12-07T05:10:44;34.53;;;23.93;;
63807;SDS011;49961;43.970;22.868;2022-12-07T05:11:45;34.13;;;22.90;;
63807;SDS011;49961;43.970;22.868;2022-12-07T05:12:45;35.40;;;23.33;;
63807;SDS011;49961;43.970;22.868;2022-12-07T05:13:46;35.03;;;23.43;;
63807;SDS011;49961;43.970;22.868;2022-12-07T05:14:46;37.07;;;24.67;;
63807;SDS011;49961;43.970;22.868;2022-12-07T05:15:47;32.13;;;22.33;;
63807;SDS011;49961;43.970;22.868;2022-12-07T05:16:49;33.60;;;23.17;;
63807;SDS011;49961;43.970;22.868;2022-12-07T05:17:50;33.67;;;22.30;;
63807;SDS011;49961;43.970;22.868;2022-12-07T05:18:52;35.97;;;24.70;;
63807;SDS011;49961;43.970;22.868;2022-12-07T05:19:52;39.87;;;27.27;;
63807;SDS011;49961;43.970;22.868;2022-12-07T05:20:53;31.17;;;22.80;;
63807;SDS011;49961;43.970;22.868;2022-12-07T05:21:54;33.80;;;22.90;;
63807;SDS011;49961;43.970;22.868;2022-12-07T05:22:54;32.93;;;22.97;;
63807;SDS011;49961;43.970;22.868;2022-12-07T05:23:54;34.07;;;23.50;;
63807;SDS011;49961;43.970;22.868;2022-12-07T05:24:55;36.17;;;23.27;;
63807;SDS011;49961;43.970;22.868;2022-12-07T05:25:55;31.93;;;22.13;;
63807;SDS011;49961;43.970;22.868;2022-12-07T05:26:56;40.80;;;28.60;;
63807;SDS011;49961;43.970;22.868;2022-12-07T05:27:56;38.47;;;27.10;;
63807;SDS011;49961;43.970;22.868;2022-12-07T05:28:57;34.77;;;24.33;;
63807;SDS011;49961;43.970;22.868;2022-12-07T05:29:58;36.83;;;24.00;;
63807;SDS011;49961;43.970;22.868;2022-12-07T05:30:58;31.40;;;22.33;;
63807;SDS011;49961;43.970;22.868;2022-12-07T05:31:59;35.33;;;22.37;;
63807;SDS011;49961;43.970;22.868;2022-12-07T05:32:59;31.93;;;22.37;;
63807;SDS011;49961;43.970;22.868;2022-12-07T05:34:00;32.43;;;22.37;;
63807;SDS011;49961;43.970;22.868;2022-12-07T05:35:00;32.83;;;22.77;;
63807;SDS011;49961;43.970;22.868;2022-12-07T05:36:00;31.67;;;22.43;;
63807;SDS011;49961;43.970;22.868;2022-12-07T05:37:05;30.13;;;21.47;;
63807;SDS011;49961;43.970;22.868;2022-12-07T05:38:05;30.87;;;20.93;;
63807;SDS011;49961;43.970;22.868;2022-12-07T05:39:06;32.57;;;21.83;;
63807;SDS011;49961;43.970;22.868;2022-12-07T05:40:07;29.93;;;21.07;;
63807;SDS011;49961;43.970;22.868;2022-12-07T05:41:09;29.90;;;21.60;;
63807;SDS011;49961;43.970;22.868;2022-12-07T05:42:33;32.67;;;22.30;;
63807;SDS011;49961;43.970;22.868;2022-12-07T05:43:34;36.43;;;24.13;;
63807;SDS011;49961;43.970;22.868;2022-12-07T05:44:34;33.17;;;23.17;;
63807;SDS011;49961;43.970;22.868;2022-12-07T05:45:35;33.67;;;22.47;;
63807;SDS011;49961;43.970;22.868;2022-12-07T05:46:35;32.37;;;22.53;;
63807;SDS011;49961;43.970;22.868;2022-12-07T05:47:36;35.37;;;22.70;;
63807;SDS011;49961;43.970;22.868;2022-12-07T05:48:37;30.80;;;22.23;;
63807;SDS011;49961;43.970;22.868;2022-12-07T05:49:37;38.73;;;26.87;;
63807;SDS011;49961;43.970;22.868;2022-12-07T05:50:38;38.07;;;26.50;;
63807;SDS011;49961;43.970;22.868;2022-12-07T05:51:38;39.37;;;27.13;;
63807;SDS011;49961;43.970;22.868;2022-12-07T05:52:39;35.30;;;23.77;;
63807;SDS011;49961;43.970;22.868;2022-12-07T05:53:39;34.07;;;22.67;;
63807;SDS011;49961;43.970;22.868;2022-12-07T05:54:39;35.47;;;23.13;;
63807;SDS011;49961;43.970;22.868;2022-12-07T05:55:40;31.70;;;22.40;;
63807;SDS011;49961;43.970;22.868;2022-12-07T05:56:40;33.57;;;23.17;;
63807;SDS011;49961;43.970;22.868;2022-12-07T05:57:42;34.03;;;22.20;;
63807;SDS011;49961;43.970;22.868;2022-12-07T05:59:03;33.87;;;21.87;;
63807;SDS011;49961;43.970;22.868;2022-12-07T06:00:22;33.40;;;22.27;;
63807;SDS011;49961;43.970;22.868;2022-12-07T06:01:22;32.03;;;21.17;;
63807;SDS011;49961;43.970;22.868;2022-12-07T06:02:23;34.03;;;22.30;;
63807;SDS011;49961;43.970;22.868;2022-12-07T06:03:23;32.90;;;21.77;;
63807;SDS011;49961;43.970;22.868;2022-12-07T06:04:25;32.53;;;21.93;;
63807;SDS011;49961;43.970;22.868;2022-12-07T06:05:27;30.07;;;21.30;;
63807;SDS011;49961;43.970;22.868;2022-12-07T06:06:28;30.93;;;20.87;;
63807;SDS011;49961;43.970;22.868;2022-12-07T06:07:28;32.37;;;21.20;;
63807;SDS011;49961;43.970;22.868;2022-12-07T06:08:28;31.33;;;20.90;;
63807;SDS011;49961;43.970;22.868;2022-12-07T06:09:29;32.23;;;20.80;;
63807;SDS011;49961;43.970;22.868;2022-12-07T06:10:30;32.53;;;22.23;;
63807;SDS011;49961;43.970;22.868;2022-12-07T06:11:30;32.77;;;20.83;;
63807;SDS011;49961;43.970;22.868;2022-12-07T06:12:49;33.67;;;22.07;;
63807;SDS011;49961;43.970;22.868;2022-12-07T06:13:50;30.87;;;20.70;;
63807;SDS011;49961;43.970;22.868;2022-12-07T06:14:50;34.73;;;22.37;;
63807;SDS011;49961;43.970;22.868;2022-12-07T06:15:50;31.67;;;21.07;;
63807;SDS011;49961;43.970;22.868;2022-12-07T06:16:51;32.77;;;21.17;;
63807;SDS011;49961;43.970;22.868;2022-12-07T06:17:51;32.27;;;21.40;;
63807;SDS011;49961;43.970;22.868;2022-12-07T06:18:52;32.23;;;21.47;;
63807;SDS011;49961;43.970;22.868;2022-12-07T06:19:52;32.50;;;21.73;;
63807;SDS011;49961;43.970;22.868;2022-12-07T06:20:53;31.37;;;21.60;;
63807;SDS011;49961;43.970;22.868;2022-12-07T06:21:53;35.93;;;22.67;;
63807;SDS011;49961;43.970;22.868;2022-12-07T06:22:54;30.17;;;21.27;;
63807;SDS011;49961;43.970;22.868;2022-12-07T06:23:54;31.70;;;21.30;;
63807;SDS011;49961;43.970;22.868;2022-12-07T06:24:55;30.40;;;21.17;;
63807;SDS011;49961;43.970;22.868;2022-12-07T06:25:55;29.17;;;19.93;;
63807;SDS011;49961;43.970;22.868;2022-12-07T06:26:56;27.17;;;19.77;;
63807;SDS011;49961;43.970;22.868;2022-12-07T06:27:56;29.03;;;20.20;;
63807;SDS011;49961;43.970;22.868;2022-12-07T06:28:57;28.87;;;20.30;;
63807;SDS011;49961;43.970;22.868;2022-12-07T06:29:57;31.57;;;21.43;;
63807;SDS011;49961;43.970;22.868;2022-12-07T06:30:58;29.60;;;20.40;;
63807;SDS011;49961;43.970;22.868;2022-12-07T06:32:00;29.33;;;20.27;;
63807;SDS011;49961;43.970;22.868;2022-12-07T06:33:01;29.03;;;19.50;;
63807;SDS011;49961;43.970;22.868;2022-12-07T06:34:02;29.67;;;20.17;;